• Join FlightAware (Why Join?)
  • Login
  • US Flag 
09:02PM EDT


 

Airport Tracker/Info


-or-


 

Live Flight TrackerFlight Track Log ✈ N546QS ✈ 10-Jun-2013 ✈ KMDW - EGSS / STN

Flight Track Log - Related Links

Times and Time Zones

All times are in EDT time to prevent confusion due to time zone crossing. See the N546QS flight status page for this flight to view local times or setup timezone preferences in your user account.

Time Position Orientation Groundspeed Altitude Reporting Facility
EDT Latitude Longitude Course Direction KTS MPH feet Rate Location/Type
05:20PM 41.8000 -87.6833 75° East 213 245 2,900  Level Chicago TRACON
05:21PM 41.8167 -87.6000 75° East 258 297 4,100 1,980 Climbing Chicago TRACON
05:22PM 41.8714 -87.5786 16° North 250 288 6,400 2,940 Climbing Chicago Center
05:23PM 41.9439 -87.5817 358° North 264 304 9,400 3,360 Climbing Chicago Center
05:24PM 42.0019 -87.6497 319° Northwest 275 316 13,400 2,880 Climbing Chicago Center
05:25PM 42.0700 -87.6989 332° Northwest 292 336 15,500 1,620 Climbing Chicago Center
05:26PM 42.1547 -87.6942 North 305 351 16,800 1,860 Climbing Chicago Center
05:27PM 42.2725 -87.6847 North 351 404 19,400 2,340 Climbing Chicago Center
05:28PM 42.3736 -87.6739 North 363 418 21,700 2,040 Climbing Chicago Center
05:29PM 42.4783 -87.6647 North 375 432 23,700 1,980 Climbing Chicago Center
05:30PM 42.5950 -87.6544 North 395 455 25,900 1,920 Climbing Chicago Center
05:31PM 42.7097 -87.6325 North 413 475 27,700 1,260 Climbing Chicago Center
05:32PM 42.8092 -87.5322 36° Northeast 439 505 28,600 1,680 Climbing Chicago Center
05:33PM 42.9319 -87.4061 37° Northeast 469 540 31,200 1,680 Climbing Chicago Center
05:34PM 43.0181 -87.3161 37° Northeast 457 526 32,100 1,020 Climbing Chicago Center
05:35PM 43.1181 -87.2119 37° Northeast 451 519 33,400 1,740 Climbing Chicago Center
05:36PM 43.2392 -87.0861 37° Northeast 453 521 35,700 1,740 Climbing Chicago Center
05:37PM 43.3372 -86.9842 37° Northeast 446 513 37,000 1,080 Climbing Chicago Center
05:38PM 43.4381 -86.8792 37° Northeast 451 519 38,000 960 Climbing Chicago Center
05:40PM 43.5403 -86.7717 37° Northeast 458 527 39,100 960 Climbing Chicago Center
05:41PM 43.7042 -86.5961 38° Northeast 465 535 40,600 840 Climbing Minneapolis Center
05:42PM 43.7472 -86.5525 36° Northeast 469 540 40,900 240 Climbing Chicago Center
05:43PM 43.8519 -86.4411 37° Northeast 470 541 41,000 60 Climbing Chicago Center
05:43PM 43.9144 -86.3722 38° Northeast 481 554 41,000  Level Minneapolis Center
05:44PM 44.0217 -86.2578 37° Northeast 486 559 41,000  Level Minneapolis Center
05:45PM 44.1342 -86.1353 38° Northeast 482 555 41,000  Level Minneapolis Center
05:46PM 44.2394 -86.0192 38° Northeast 485 558 41,000  Level Minneapolis Center
05:47PM 44.3692 -85.8786 38° Northeast 496 571 41,000  Level Minneapolis Center
05:48PM 44.4767 -85.7611 38° Northeast 497 572 41,000  Level Minneapolis Center
05:49PM 44.5825 -85.6439 38° Northeast 494 568 41,000  Level Minneapolis Center
05:50PM 44.6844 -85.5183 41° Northeast 494 568 41,000  Level Minneapolis Center
05:51PM 44.7686 -85.3569 54° Northeast 511 588 41,000 -60 Level Minneapolis Center
05:52PM 44.8711 -85.1608 54° Northeast 521 600 40,900  Descending Minneapolis Center
05:53PM 44.9572 -84.9953 54° Northeast 525 604 41,000  Climbing Minneapolis Center
05:55PM 45.0428 -84.8297 54° Northeast 524 603 41,000  Level Minneapolis Center
05:56PM 45.1272 -84.6669 54° Northeast 518 596 41,000  Level Minneapolis Center
05:57PM 45.2089 -84.5039 55° Northeast 512 589 41,000  Level Minneapolis Center
05:58PM 45.2928 -84.3408 54° Northeast 512 589 41,000  Level Minneapolis Center
05:59PM 45.3933 -84.1422 54° Northeast 516 594 41,000  Level Minneapolis Center
05:59PM 45.4333 -84.0000 68° East 520 598 41,000  Level Toronto Center
06:00PM 45.5167 -83.8500 52° Northeast 520 598 41,000  Level Toronto Center
06:01PM 45.5594 -83.8086 34° Northeast 517 595 41,000  Level Minneapolis Center
06:02PM 45.6403 -83.6433 55° Northeast 512 589 41,000  Level Minneapolis Center
06:02PM 45.6833 -83.5000 67° East 520 598 41,000  Level Toronto Center
06:03PM 45.7667 -83.3333 54° Northeast 520 598 41,000  Level Toronto Center
06:04PM 45.8500 -83.1667 54° Northeast 510 587 41,000  Level Toronto Center
06:05PM 45.9333 -83.0167 51° Northeast 520 598 41,000  Level Toronto Center
06:06PM 46.0000 -82.8500 60° Northeast 520 598 41,000  Level Toronto Center
06:07PM 46.1000 -82.6667 52° Northeast 510 587 41,000  Level Toronto Center
06:08PM 46.1667 -82.5000 60° Northeast 510 587 41,000  Level Toronto Center
06:09PM 46.2500 -82.3000 59° Northeast 520 598 41,000  Level Toronto Center
06:10PM 46.3333 -82.1500 51° Northeast 520 598 41,000  Level Toronto Center
06:11PM 46.4167 -81.9833 54° Northeast 520 598 41,000  Level Toronto Center
06:12PM 46.5000 -81.8167 54° Northeast 520 598 41,000  Level Toronto Center
06:13PM 46.5667 -81.6167 64° Northeast 520 598 41,000  Level Toronto Center
06:14PM 46.6500 -81.4500 54° Northeast 520 598 41,000  Level Toronto Center
06:15PM 46.7333 -81.2833 54° Northeast 520 598 41,000  Level Toronto Center
06:16PM 46.8000 -81.1000 62° Northeast 520 598 41,000  Level Toronto Center
06:17PM 46.8833 -80.9167 56° Northeast 520 598 41,000  Level Toronto Center
06:18PM 46.9667 -80.7500 54° Northeast 520 598 41,000  Level Toronto Center
06:19PM 47.0500 -80.5667 56° Northeast 520 598 41,000  Level Toronto Center
06:20PM 47.1167 -80.3833 62° Northeast 520 598 41,000  Level Toronto Center
06:21PM 47.2000 -80.2000 56° Northeast 520 598 41,000  Level Toronto Center
06:22PM 47.2667 -80.0167 62° Northeast 520 598 41,000  Level Toronto Center
06:23PM 47.3500 -79.8500 54° Northeast 520 598 41,000  Level Toronto Center
06:24PM 47.4333 -79.6500 58° Northeast 530 610 41,000  Level Toronto Center
06:25PM 47.5000 -79.4833 59° Northeast 520 598 41,000  Level Toronto Center
06:26PM 47.5833 -79.2833 58° Northeast 520 598 41,000  Level Toronto Center
06:27PM 47.6500 -79.1167 59° Northeast 520 598 41,000  Level Toronto Center
06:28PM 47.6833 -79.0833 34° Northeast 520 598 41,000  Level Montreal Center
06:29PM 47.7500 -78.8833 64° Northeast 520 598 41,000  Level Montreal Center
06:30PM 47.8167 -78.7000 62° Northeast 520 598 41,000 60 Level Montreal Center
06:31PM 47.9000 -78.5167 56° Northeast 520 598 41,200 300 Climbing Montreal Center
06:32PM 47.9667 -78.3333 61° Northeast 530 610 41,700 480 Climbing Montreal Center
06:33PM 48.0333 -78.1333 63° Northeast 530 610 42,200 600 Climbing Montreal Center
06:34PM 48.1167 -77.9500 56° Northeast 520 598 43,000 360 Climbing Montreal Center
06:35PM 48.2000 -77.7500 58° Northeast 510 587 43,000  Level Montreal Center
06:36PM 48.2833 -77.6000 50° Northeast 510 587 43,000  Level Montreal Center
06:37PM 48.3667 -77.4333 53° Northeast 510 587 43,000  Level Montreal Center
06:38PM 48.4500 -77.2667 53° Northeast 510 587 43,000  Level Montreal Center
06:39PM 48.5333 -77.0833 55° Northeast 510 587 43,000  Level Montreal Center
06:40PM 48.6333 -76.9333 45° Northeast 510 587 43,000  Level Montreal Center
06:41PM 48.7167 -76.7333 58° Northeast 510 587 43,000  Level Montreal Center
06:42PM 48.8000 -76.5833 50° Northeast 510 587 43,000  Level Montreal Center
06:43PM 48.8833 -76.4000 55° Northeast 510 587 43,000  Level Montreal Center
06:44PM 48.9667 -76.2167 55° Northeast 510 587 43,000  Level Montreal Center
06:45PM 49.0500 -76.0667 50° Northeast 510 587 43,000  Level Montreal Center
06:46PM 49.1333 -75.8833 55° Northeast 510 587 43,000  Level Montreal Center
06:47PM 49.2167 -75.7167 53° Northeast 510 587 43,000  Level Montreal Center
06:48PM 49.3000 -75.5333 55° Northeast 510 587 43,000  Level Montreal Center
06:49PM 49.3833 -75.3500 55° Northeast 510 587 43,000  Level Montreal Center
06:50PM 49.4833 -75.1667 50° Northeast 510 587 43,000  Level Montreal Center
06:51PM 49.5500 -74.9833 61° Northeast 510 587 43,000  Level Montreal Center
06:52PM 49.6500 -74.8000 50° Northeast 510 587 43,000  Level Montreal Center
06:53PM 49.7333 -74.6333 52° Northeast 510 587 43,000  Level Montreal Center
06:54PM 49.8167 -74.4500 55° Northeast 510 587 43,000  Level Montreal Center
06:55PM 49.9000 -74.2667 55° Northeast 510 587 43,000  Level Montreal Center
06:56PM 50.0333 -73.9667 55° Northeast 500 575 43,000  Level Montreal Center
06:57PM 50.1167 -73.7833 55° Northeast 500 575 43,000  Level Montreal Center
06:58PM 50.2000 -73.6000 55° Northeast 510 587 43,000  Level Montreal Center
06:59PM 50.2833 -73.4333 52° Northeast 510 587 43,000  Level Montreal Center
07:00PM 50.3667 -73.2500 54° Northeast 500 575 43,000  Level Montreal Center
07:01PM 50.4667 -73.0500 52° Northeast 510 587 43,000  Level Montreal Center
07:02PM 50.5333 -72.9000 55° Northeast 510 587 43,000  Level Montreal Center
07:03PM 50.6167 -72.7000 57° Northeast 500 575 43,000  Level Montreal Center
07:04PM 50.7000 -72.5167 54° Northeast 510 587 43,000  Level Montreal Center
07:05PM 50.7667 -72.3500 58° Northeast 510 587 43,000  Level Montreal Center
07:06PM 50.8500 -72.1500 57° Northeast 510 587 43,000  Level Montreal Center
07:07PM 50.9333 -71.9667 54° Northeast 510 587 43,000  Level Montreal Center
07:08PM 51.0167 -71.7667 56° Northeast 510 587 43,000  Level Montreal Center
07:09PM 51.1000 -71.6000 51° Northeast 510 587 43,000  Level Montreal Center
07:10PM 51.1667 -71.4833 48° Northeast 510 587 43,000  Level Gander Center
07:11PM 51.2333 -71.2833 62° Northeast 510 587 43,000  Level Gander Center
07:12PM 51.3167 -71.1167 51° Northeast 520 598 43,000  Level Gander Center
07:13PM 51.4000 -70.9500 51° Northeast 500 575 43,000  Level Gander Center
07:14PM 51.4833 -70.7500 56° Northeast 500 575 43,000  Level Gander Center
07:15PM 51.5500 -70.5500 62° Northeast 520 598 43,000  Level Gander Center
07:16PM 51.6333 -70.3500 56° Northeast 510 587 43,000  Level Gander Center
07:17PM 51.7167 -70.1500 56° Northeast 510 587 43,000  Level Gander Center
07:18PM 51.7833 -69.9667 59° Northeast 520 598 43,000  Level Gander Center
07:19PM 51.8500 -69.7667 62° Northeast 530 610 43,000  Level Gander Center
07:20PM 51.9333 -69.6000 51° Northeast 520 598 43,000  Level Gander Center
07:21PM 52.0167 -69.3833 58° Northeast 500 575 43,000  Level Gander Center
07:22PM 52.0833 -69.1833 61° Northeast 510 587 43,000  Level Gander Center
07:23PM 52.1667 -68.9833 56° Northeast 510 587 43,000  Level Gander Center
07:24PM 52.2167 -68.8000 66° East 510 587 43,000  Level Gander Center
07:25PM 52.3000 -68.5833 58° Northeast 500 575 43,000  Level Gander Center
07:26PM 52.3667 -68.4167 57° Northeast 490 564 43,000  Level Gander Center
07:27PM 52.4500 -68.2000 58° Northeast 500 575 43,000  Level Gander Center
07:28PM 52.5000 -67.9833 69° East 500 575 43,000  Level Gander Center
07:29PM 52.5667 -67.8000 59° Northeast 500 575 43,000  Level Gander Center
07:30PM 52.6500 -67.6000 55° Northeast 500 575 43,000  Level Gander Center
07:31PM 52.7000 -67.3833 69° East 500 575 43,000  Level Gander Center
07:32PM 52.7667 -67.2000 59° Northeast 500 575 43,000  Level Gander Center
07:33PM 52.8500 -66.9833 57° Northeast 510 587 43,000  Level Gander Center
07:34PM 52.9000 -66.7667 69° East 500 575 43,000  Level Gander Center
07:35PM 52.9833 -66.5833 53° Northeast 510 587 43,000  Level Gander Center
07:36PM 53.0333 -66.3667 69° East 510 587 43,000  Level Gander Center
07:37PM 53.1000 -66.1833 59° Northeast 500 575 43,000  Level Gander Center
07:38PM 53.1667 -65.9667 63° Northeast 500 575 43,000  Level Gander Center
07:39PM 53.2333 -65.7500 63° Northeast 500 575 43,000  Level Gander Center
07:40PM 53.3000 -65.5667 59° Northeast 510 587 43,000  Level Gander Center
07:41PM 53.3667 -65.3500 63° Northeast 500 575 43,000  Level Gander Center
07:42PM 53.4167 -65.1333 69° East 500 575 43,000  Level Gander Center
07:43PM 53.5000 -64.9000 59° Northeast 500 575 43,000  Level Gander Center
07:44PM 53.5500 -64.7167 65° Northeast 500 575 43,000  Level Gander Center
07:45PM 53.6167 -64.5167 61° Northeast 500 575 43,000  Level Gander Center
07:46PM 53.6833 -64.3000 62° Northeast 500 575 43,000  Level Gander Center
07:47PM 53.7333 -64.1000 67° East 500 575 43,000  Level Gander Center
07:48PM 53.8000 -63.8833 62° Northeast 500 575 43,000  Level Gander Center
07:49PM 53.8500 -63.6667 69° East 490 564 43,000  Level Gander Center
07:50PM 53.9167 -63.4667 60° Northeast 490 564 43,000  Level Gander Center
07:51PM 53.9833 -63.2500 62° Northeast 490 564 43,000  Level Gander Center
07:52PM 54.0333 -63.0500 67° East 490 564 43,000  Level Gander Center
07:53PM 54.0833 -62.8167 70° East 500 575 43,000  Level Gander Center
07:54PM 54.1500 -62.6167 60° Northeast 500 575 43,000  Level Gander Center
07:55PM 54.2000 -62.5167 49° Northeast 500 575 43,000  Level Gander Center
07:56PM 54.2500 -62.2833 70° East 490 564 43,000  Level Gander Center
07:56PM 54.2667 -62.2000 71° East 500 575 43,000  Level Gander Center
07:57PM 54.3333 -61.9667 64° Northeast 490 564 43,000  Level Gander Center
07:58PM 54.3833 -61.7667 67° East 500 575 43,000  Level Gander Center
07:59PM 54.4500 -61.5333 64° Northeast 500 575 43,000  Level Gander Center
08:00PM 54.5000 -61.3167 68° East 500 575 43,000  Level Gander Center
08:01PM 54.5500 -61.1167 67° East 490 564 43,000  Level Gander Center
08:02PM 54.6167 -60.8833 64° Northeast 500 575 43,000  Level Gander Center
08:03PM 54.6333 -60.7833 74° East 490 564 43,000  Level Gander Center
08:04PM 54.7000 -60.5667 62° Northeast 490 564 43,000  Level Gander Center
08:04PM 54.7167 -60.4500 76° East 490 564 43,000  Level Gander Center
08:05PM 54.7833 -60.2333 62° Northeast 500 575 43,000  Level Gander Center
08:06PM 54.8000 -60.1167 76° East 500 575 43,000  Level Gander Center
08:07PM 54.8667 -59.8833 64° Northeast 490 564 43,000  Level Gander Center
08:07PM 54.8667 -59.8000 90° East 490 564 43,000  Level Gander Center
08:08PM 54.9000 -59.6833 64° Northeast 490 564 43,000  Level Gander Center
08:08PM 54.9333 -59.5667 64° Northeast 490 564 43,000  Level Gander Center
08:09PM 54.9833 -59.3667 66° East 500 575 43,000  Level Gander Center
08:10PM 55.0333 -59.1167 71° East 490 564 43,000  Level Gander Center
08:11PM 55.0667 -59.0333 55° Northeast 490 564 43,000  Level Gander Center
08:12PM 55.1167 -58.8000 69° East 490 564 43,000  Level Gander Center
08:13PM 55.1667 -58.5833 68° East 490 564 43,000  Level Gander Center
08:13PM 55.1833 -58.4500 78° East 490 564 43,000  Level Gander Center
08:14PM 55.2167 -58.3500 60° Northeast 490 564 43,000  Level Gander Center
08:15PM 55.2667 -58.1167 69° East 490 564 43,000  Level Gander Center
08:15PM 55.3000 -58.0333 55° Northeast 490 564 43,000  Level Gander Center
08:16PM 55.3333 -57.7833 77° East 490 564 43,000  Level Gander Center
08:17PM 55.3833 -57.5833 66° East 490 564 43,000  Level Gander Center
08:18PM 55.4333 -57.3333 70° East 490 564 43,000  Level Gander Center
08:19PM 55.4833 -57.1167 68° East 490 564 43,000  Level Gander Center
08:20PM 55.5167 -57.0167 80° East 493 567 43,000  Level ETMS Enhanced Traffic Management System
08:20PM 55.5167 -56.8833 80° East 500 575 43,000  Level Gander Center
08:21PM 55.5500 -56.6500 76° East 500 575 43,000  Level Gander Center
08:22PM 55.5667 -56.3833 84° East 500 575 43,000  Level Gander Center
08:23PM 55.5833 -56.2833 74° East 490 564 43,000  Level Gander Center
08:23PM 55.6000 -56.1667 76° East 490 564 43,000  Level Gander Center
08:24PM 55.6000 -56.0167 90° East 500 575 43,000  Level Gander Center
08:26PM 55.6387 -55.5777 81° East  Level FlightAware Approximate
08:33PM 55.7700 -53.9240 81° East  Level FlightAware Approximate
08:34PM 55.7870 -53.6869 83° East  Level FlightAware Approximate
08:35PM 55.8036 -53.4498 83° East  Level FlightAware Approximate
08:36PM 55.8203 -53.2124 83° East  Level FlightAware Approximate
08:37PM 55.8365 -52.9748 83° East  Level FlightAware Approximate
08:38PM 55.8522 -52.7371 83° East  Level FlightAware Approximate
08:39PM 55.8675 -52.4991 83° East  Level FlightAware Approximate
08:40PM 55.8824 -52.2610 84° East  Level FlightAware Approximate
08:41PM 55.8968 -52.0227 84° East  Level FlightAware Approximate
08:42PM 55.9107 -51.7842 84° East  Level FlightAware Approximate
08:43PM 55.9242 -51.5455 84° East  Level FlightAware Approximate
08:44PM 55.9372 -51.3067 84° East  Level FlightAware Approximate
08:45PM 55.9497 -51.0677 85° East  Level FlightAware Approximate
08:46PM 55.9618 -50.8286 85° East  Level FlightAware Approximate
08:47PM 55.9734 -50.5893 85° East  Level FlightAware Approximate
08:48PM 55.9846 -50.3499 85° East  Level FlightAware Approximate
08:49PM 55.9952 -50.1103 85° East  Level FlightAware Approximate
08:50PM 56.0052 -49.8706 86° East  Level FlightAware Approximate
08:51PM 56.0144 -49.6307 86° East  Level FlightAware Approximate
08:52PM 56.0232 -49.3908 86° East  Level FlightAware Approximate
08:53PM 56.0315 -49.1507 86° East  Level FlightAware Approximate
08:54PM 56.0393 -48.9105 87° East  Level FlightAware Approximate
08:55PM 56.0467 -48.6702 87° East  Level FlightAware Approximate
08:56PM 56.0536 -48.4298 87° East  Level FlightAware Approximate
08:57PM 56.0601 -48.1894 87° East  Level FlightAware Approximate
08:58PM 56.0660 -47.9488 87° East  Level FlightAware Approximate
08:59PM 56.0715 -47.7082 88° East  Level FlightAware Approximate
09:00PM 56.0766 -47.4676 88° East  Level FlightAware Approximate
09:01PM 56.0812 -47.2268 88° East  Level FlightAware Approximate
09:02PM 56.0853 -46.9860 88° East  Level FlightAware Approximate
09:03PM 56.0889 -46.7452 88° East  Level FlightAware Approximate
09:04PM 56.0920 -46.5043 89° East  Level FlightAware Approximate
09:05PM 56.0947 -46.2634 89° East  Level FlightAware Approximate
09:06PM 56.0970 -46.0225 89° East  Level FlightAware Approximate
09:07PM 56.0987 -45.7815 89° East  Level FlightAware Approximate
09:08PM 56.1000 -45.5405 89° East  Level FlightAware Approximate
09:09PM 56.1008 -45.2995 90° East  Level FlightAware Approximate
09:10PM 56.1012 -45.0585 90° East  Level FlightAware Approximate
09:11PM 56.1011 -44.8175 90° East  Level FlightAware Approximate
09:12PM 56.1005 -44.5765 90° East  Level FlightAware Approximate
09:13PM 56.0994 -44.3355 90° East  Level FlightAware Approximate
09:14PM 56.0979 -44.0945 91° East  Level FlightAware Approximate
09:15PM 56.0959 -43.8536 91° East  Level FlightAware Approximate
09:16PM 56.0934 -43.6126 91° East  Level FlightAware Approximate
09:17PM 56.0905 -43.3717 91° East  Level FlightAware Approximate
09:18PM 56.0871 -43.1309 91° East  Level FlightAware Approximate
09:19PM 56.0832 -42.8901 92° East  Level FlightAware Approximate
09:20PM 56.0789 -42.6493 92° East  Level FlightAware Approximate
09:21PM 56.0741 -42.4086 92° East  Level FlightAware Approximate
09:22PM 56.0688 -42.1680 92° East  Level FlightAware Approximate
09:23PM 56.0630 -41.9274 92° East  Level FlightAware Approximate
09:24PM 56.0568 -41.6869 93° East  Level FlightAware Approximate
09:25PM 56.0501 -41.4465 93° East  Level FlightAware Approximate
09:26PM 56.0430 -41.2062 93° East  Level FlightAware Approximate
09:27PM 56.0354 -40.9659 93° East  Level FlightAware Approximate
09:28PM 56.0273 -40.7258 93° East  Level FlightAware Approximate
09:29PM 56.0187 -40.4858 94° East  Level FlightAware Approximate
09:30PM 56.0097 -40.2458 94° East  Level FlightAware Approximate
09:31PM 56.0002 -40.0060 94° East  Level FlightAware Approximate
09:32PM 56.0093 -39.7662 86° East  Level FlightAware Approximate
09:33PM 56.0183 -39.5263 86° East  Level FlightAware Approximate
09:34PM 56.0269 -39.2863 86° East  Level FlightAware Approximate
09:35PM 56.0350 -39.0461 86° East  Level FlightAware Approximate
09:36PM 56.0426 -38.8059 87° East  Level FlightAware Approximate
09:37PM 56.0498 -38.5656 87° East  Level FlightAware Approximate
09:38PM 56.0565 -38.3252 87° East  Level FlightAware Approximate
09:39PM 56.0627 -38.0847 87° East  Level FlightAware Approximate
09:40PM 56.0685 -37.8441 87° East  Level FlightAware Approximate
09:41PM 56.0738 -37.6035 88° East  Level FlightAware Approximate
09:42PM 56.0786 -37.3628 88° East  Level FlightAware Approximate
09:43PM 56.0830 -37.1220 88° East  Level FlightAware Approximate
09:44PM 56.0869 -36.8812 88° East  Level FlightAware Approximate
09:45PM 56.0903 -36.6404 88° East  Level FlightAware Approximate
09:46PM 56.0933 -36.3995 89° East  Level FlightAware Approximate
09:47PM 56.0958 -36.1586 89° East  Level FlightAware Approximate
09:48PM 56.0978 -35.9176 89° East  Level FlightAware Approximate
09:49PM 56.0993 -35.6766 89° East  Level FlightAware Approximate
09:50PM 56.1004 -35.4356 89° East  Level FlightAware Approximate
09:51PM 56.1010 -35.1946 90° East  Level FlightAware Approximate
09:52PM 56.1012 -34.9536 90° East  Level FlightAware Approximate
09:53PM 56.1009 -34.7126 90° East  Level FlightAware Approximate
09:54PM 56.1001 -34.4716 90° East  Level FlightAware Approximate
09:55PM 56.0988 -34.2306 90° East  Level FlightAware Approximate
09:56PM 56.0971 -33.9896 91° East  Level FlightAware Approximate
09:57PM 56.0949 -33.7487 91° East  Level FlightAware Approximate
09:58PM 56.0922 -33.5078 91° East  Level FlightAware Approximate
09:59PM 56.0891 -33.2669 91° East  Level FlightAware Approximate
10:00PM 56.0855 -33.0261 91° East  Level FlightAware Approximate
10:01PM 56.0814 -32.7853 92° East  Level FlightAware Approximate
10:02PM 56.0768 -32.5445 92° East  Level FlightAware Approximate
10:03PM 56.0718 -32.3039 92° East  Level FlightAware Approximate
10:04PM 56.0663 -32.0633 92° East  Level FlightAware Approximate
10:05PM 56.0604 -31.8227 92° East  Level FlightAware Approximate
10:06PM 56.0540 -31.5823 93° East  Level FlightAware Approximate
10:07PM 56.0471 -31.3419 93° East  Level FlightAware Approximate
10:08PM 56.0397 -31.1016 93° East  Level FlightAware Approximate
10:09PM 56.0319 -30.8614 93° East  Level FlightAware Approximate
10:10PM 56.0236 -30.6213 93° East  Level FlightAware Approximate
10:11PM 56.0149 -30.3813 94° East  Level FlightAware Approximate
10:12PM 56.0056 -30.1414 94° East  Level FlightAware Approximate
10:13PM 55.9942 -29.9020 96° East  Level FlightAware Approximate
10:14PM 55.9798 -29.6630 96° East  Level FlightAware Approximate
10:15PM 55.9650 -29.4243 96° East  Level FlightAware Approximate
10:16PM 55.9497 -29.1857 96° East  Level FlightAware Approximate
10:17PM 55.9339 -28.9474 97° East  Level FlightAware Approximate
10:18PM 55.9177 -28.7092 97° East  Level FlightAware Approximate
10:19PM 55.9010 -28.4713 97° East  Level FlightAware Approximate
10:20PM 55.8838 -28.2335 97° East  Level FlightAware Approximate
10:20PM 56.0000 -30.0000 96° East 492 566 43,000  Level ETMS Enhanced Traffic Management System
10:21PM 55.8662 -27.9960 97° East  Level FlightAware Approximate
10:22PM 55.8481 -27.7587 98° East  Level FlightAware Approximate
10:23PM 55.8296 -27.5216 98° East  Level FlightAware Approximate
10:24PM 55.8106 -27.2847 98° East  Level FlightAware Approximate
10:25PM 55.7912 -27.0480 98° East  Level FlightAware Approximate
10:26PM 55.6937 -25.8925 99° East 492 566 43,000  Level FlightAware Transoceanic
10:27PM 55.6714 -25.6530 99° East 492 566 43,000  Level FlightAware Transoceanic
10:28PM 55.6487 -25.4139 100° East 492 566 43,000  Level FlightAware Transoceanic
10:29PM 55.6255 -25.1750 100° East 492 566 43,000  Level FlightAware Transoceanic
10:30PM 55.6019 -24.9363 100° East 492 566 43,000  Level FlightAware Transoceanic
10:31PM 55.5778 -24.6980 100° East 492 566 43,000  Level FlightAware Transoceanic
10:32PM 55.5532 -24.4600 100° East 492 566 43,000  Level FlightAware Transoceanic
10:33PM 55.5282 -24.2223 101° East 492 566 43,000  Level FlightAware Transoceanic
10:34PM 55.5027 -23.9849 101° East 492 566 43,000  Level FlightAware Transoceanic
10:35PM 55.4767 -23.7478 101° East 492 566 43,000  Level FlightAware Transoceanic
10:36PM 55.4503 -23.5110 101° East 492 566 43,000  Level FlightAware Transoceanic
10:37PM 55.4234 -23.2745 101° East 492 566 43,000  Level FlightAware Transoceanic
10:38PM 55.3961 -23.0384 102° East 492 566 43,000  Level FlightAware Transoceanic
10:39PM 55.3683 -22.8025 102° East 492 566 43,000  Level FlightAware Transoceanic
10:40PM 55.3401 -22.5671 102° East 492 566 43,000  Level FlightAware Transoceanic
10:41PM 55.3114 -22.3319 102° East 492 566 43,000  Level FlightAware Transoceanic
10:42PM 55.2823 -22.0971 102° East 492 566 43,000  Level FlightAware Transoceanic
10:43PM 55.2527 -21.8626 103° East 492 566 43,000  Level FlightAware Transoceanic
10:44PM 55.2227 -21.6285 103° East 492 566 43,000  Level FlightAware Transoceanic
10:45PM 55.1922 -21.3948 103° East 492 566 43,000  Level FlightAware Transoceanic
10:46PM 55.1613 -21.1614 103° East 492 566 43,000  Level FlightAware Transoceanic
10:47PM 55.1299 -20.9284 103° East 492 566 43,000  Level FlightAware Transoceanic
10:48PM 55.0981 -20.6957 104° East 492 566 43,000  Level FlightAware Transoceanic
10:49PM 55.0658 -20.4634 104° East 492 566 43,000  Level FlightAware Transoceanic
10:50PM 55.0331 -20.2315 104° East 492 566 43,000  Level FlightAware Transoceanic
10:51PM 55.0006 -20.0041 104° East  Level FlightAware Approximate
10:52PM 54.9674 -19.7771 104° East  Level FlightAware Approximate
10:53PM 54.9900 -19.7747 94° East  Level FlightAware Approximate
10:54PM 54.9792 -19.5412 95° East  Level FlightAware Approximate
10:55PM 54.9679 -19.3078 95° East  Level FlightAware Approximate
10:56PM 54.9562 -19.0746 95° East  Level FlightAware Approximate
10:57PM 54.9440 -18.8415 95° East  Level FlightAware Approximate
10:58PM 54.9314 -18.6085 95° East  Level FlightAware Approximate
10:59PM 54.9184 -18.3757 95° East  Level FlightAware Approximate
11:00PM 54.9049 -18.1431 96° East  Level FlightAware Approximate
11:01PM 54.8910 -17.9106 96° East  Level FlightAware Approximate
11:02PM 54.8766 -17.6782 96° East  Level FlightAware Approximate
11:03PM 54.8618 -17.4461 96° East  Level FlightAware Approximate
11:04PM 54.8464 -17.2141 97° East  Level FlightAware Approximate
11:05PM 54.8301 -16.9824 97° East  Level FlightAware Approximate
11:06PM 54.8134 -16.7509 97° East  Level FlightAware Approximate
11:07PM 54.7963 -16.5196 97° East  Level FlightAware Approximate
11:08PM 54.7787 -16.2885 97° East  Level FlightAware Approximate
11:09PM 54.7607 -16.0576 98° East  Level FlightAware Approximate
11:10PM 54.7422 -15.8269 98° East  Level FlightAware Approximate
11:11PM 54.7233 -15.5964 98° East  Level FlightAware Approximate
11:12PM 54.7040 -15.3661 98° East  Level FlightAware Approximate
11:13PM 54.6842 -15.1361 98° East  Level FlightAware Approximate
11:14PM 54.6640 -14.9062 99° East  Level FlightAware Approximate
11:15PM 54.6434 -14.6767 99° East  Level FlightAware Approximate
11:16PM 54.6227 -14.4472 99° East  Level FlightAware Approximate
11:17PM 54.6020 -14.2178 99° East  Level FlightAware Approximate
11:18PM 54.5808 -13.9888 99° East  Level FlightAware Approximate
11:19PM 54.5592 -13.7599 99° East  Level FlightAware Approximate
11:20PM 54.5372 -13.5313 99° East  Level FlightAware Approximate
11:21PM 54.5147 -13.3029 100° East  Level FlightAware Approximate
11:22PM 54.4918 -13.0748 100° East  Level FlightAware Approximate
11:23PM 54.4685 -12.8470 100° East  Level FlightAware Approximate
11:24PM 54.4448 -12.6194 100° East  Level FlightAware Approximate
11:25PM 54.4206 -12.3920 100° East  Level FlightAware Approximate
11:26PM 54.3960 -12.1650 100° East  Level FlightAware Approximate
11:27PM 54.3709 -11.9382 101° East  Level FlightAware Approximate
11:28PM 54.3442 -11.7121 102° East  Level FlightAware Approximate
11:29PM 54.3169 -11.4864 102° East  Level FlightAware Approximate
11:30PM 54.2891 -11.2610 102° East  Level FlightAware Approximate
11:31PM 54.2609 -11.0359 102° East  Level FlightAware Approximate
11:32PM 54.2333 -10.8108 102° East  Level FlightAware Approximate
11:33PM 54.2060 -10.5857 102° East  Level FlightAware Approximate
11:34PM 54.1782 -10.3609 102° East  Level FlightAware Approximate
11:35PM 54.1500 -10.1364 102° East  Level FlightAware Approximate
11:36PM 54.1214 -9.9122 102° East  Level FlightAware Approximate
11:37PM 54.0924 -9.6884 102° East  Level FlightAware Approximate
11:38PM 54.0630 -9.4648 103° East  Level FlightAware Approximate
11:38PM 53.7592 -8.9739 103° East 494 568 43,000  Level FlightAware UK
11:38PM 53.7514 -8.8571 96° East 496 571 43,000  Level FlightAware UK
11:39PM 53.7438 -8.7402 96° East 498 573 43,000  Level FlightAware UK
11:39PM 53.7359 -8.6232 96° East 498 573 43,000  Level FlightAware UK
11:40PM 53.7278 -8.5064 97° East 496 571 43,000  Level FlightAware UK
11:40PM 53.7194 -8.3892 97° East 496 571 43,000  Level FlightAware UK
11:41PM 53.7108 -8.2728 97° East 494 568 43,000  Level FlightAware UK
11:41PM 53.7026 -8.1569 97° East 496 571 43,000  Level FlightAware UK
11:42PM 53.6926 -8.0186 97° East 496 571 43,000  Level FlightAware UK
11:42PM 53.6839 -7.9014 97° East 496 571 43,000  Level FlightAware UK
11:43PM 53.6751 -7.7847 97° East 496 571 43,000  Level FlightAware UK
11:43PM 53.6662 -7.6675 97° East 496 571 43,000  Level FlightAware UK
11:44PM 53.6574 -7.5505 97° East 496 571 43,000  Level FlightAware UK
11:44PM 53.6462 -7.4114 98° East 496 571 43,000  Level FlightAware UK
11:45PM 53.6368 -7.2935 98° East 496 571 43,000  Level FlightAware UK
11:45PM 53.6273 -7.1763 98° East 494 568 43,000  Level FlightAware UK
11:46PM 53.6179 -7.0602 98° East 496 571 43,000  Level FlightAware UK
11:46PM 53.6085 -6.9440 98° East 498 573 43,000  Level FlightAware UK
11:47PM 53.5989 -6.8278 98° East 494 568 43,000  Level FlightAware UK
11:47PM 53.5891 -6.7122 98° East 494 568 43,000  Level FlightAware UK
11:48PM 53.5774 -6.5737 98° East 494 568 43,000  Level FlightAware UK
11:48PM 53.5676 -6.4582 98° East 494 568 43,000  Level FlightAware UK
11:49PM 53.5574 -6.3426 98° East 494 568 43,000  Level FlightAware UK
11:49PM 53.5470 -6.2263 98° East 492 566 43,000  Level FlightAware UK
11:50PM 53.5366 -6.1109 99° East 492 566 43,000  Level FlightAware UK
11:50PM 53.5262 -5.9952 99° East 492 566 43,000  Level FlightAware UK
11:51PM 53.5157 -5.8791 99° East 494 568 43,000  Level FlightAware UK
11:51PM 53.5048 -5.7628 99° East 494 568 43,000  Level FlightAware UK
11:52PM 53.4939 -5.6463 99° East 494 568 43,000  Level FlightAware UK
11:52PM 53.4838 -5.5294 98° East 494 568 43,000  Level FlightAware UK
11:53PM 53.4736 -5.4114 98° East 494 568 43,000  Level FlightAware UK
11:53PM 53.4632 -5.2942 98° East 492 566 43,000  Level FlightAware UK
11:54PM 53.4524 -5.1766 99° East 492 566 43,000  Level FlightAware UK
11:54PM 53.4418 -5.0595 99° East 494 568 43,000  Level FlightAware UK
11:55PM 53.4289 -4.9193 99° East 496 571 43,000  Level FlightAware UK
11:55PM 53.4180 -4.8019 99° East 496 571 43,000  Level FlightAware UK
11:56PM 53.4068 -4.6852 99° East 492 566 43,000  Level FlightAware UK
11:56PM 53.3957 -4.5691 99° East 490 564 43,000  Level FlightAware UK
11:57PM 53.3844 -4.4522 99° East 494 568 43,000  Level FlightAware UK
11:57PM 53.3730 -4.3352 99° East 496 571 43,000  Level FlightAware UK
11:58PM 53.3615 -4.2173 99° East 496 571 43,000  Level FlightAware UK
11:58PM 53.3497 -4.1004 100° East 492 566 43,000  Level FlightAware UK
11:59PM 53.3379 -3.9841 100° East 490 564 43,000  Level FlightAware UK
11:59PM 53.3260 -3.8667 100° East 496 571 43,000  Level FlightAware UK
12:00AM 53.3139 -3.7492 100° East 496 571 43,000  Level FlightAware UK
12:00AM 53.3017 -3.6304 100° East 496 571 43,000  Level FlightAware UK
12:01AM 53.2869 -3.4903 100° East 496 571 43,000  Level FlightAware UK
12:02AM 53.2744 -3.3728 100° East 494 568 43,000  Level FlightAware UK
12:02AM 53.2619 -3.2560 100° East 496 571 43,000  Level FlightAware UK
12:03AM 53.2415 -3.1453 107° East 494 568 43,000 -900 Level FlightAware UK
12:03AM 53.2124 -3.0657 121° Southeast 486 559 42,200 -2,160 Descending FlightAware UK
12:03AM 53.1679 -2.9793 131° Southeast 482 555 41,100 -2,220 Descending FlightAware UK
12:04AM 53.1240 -2.8943 131° Southeast 476 548 40,000 -2,100 Descending FlightAware UK
12:05AM 53.0716 -2.7935 131° Southeast 480 552 38,800 -2,100 Descending FlightAware UK
12:05AM 53.0290 -2.7114 131° Southeast 484 557 37,700 -2,100 Descending FlightAware UK
12:06AM 52.9867 -2.6306 131° Southeast 466 536 36,700 -2,040 Descending FlightAware UK
12:06AM 52.9374 -2.5362 131° Southeast 466 536 35,500 -2,040 Descending FlightAware UK
12:07AM 52.8954 -2.4562 131° Southeast 470 541 34,500 -2,040 Descending FlightAware UK
12:07AM 52.8533 -2.3762 131° Southeast 472 543 33,500 -2,100 Descending FlightAware UK
12:08AM 52.8104 -2.2949 131° Southeast 478 550 32,400 -2,100 Descending FlightAware UK
12:08AM 52.7598 -2.1989 131° Southeast 478 550 31,200 -2,040 Descending FlightAware UK
12:09AM 52.7171 -2.1185 131° Southeast 480 552 30,200 -2,100 Descending FlightAware UK
12:09AM 52.6738 -2.0370 131° Southeast 482 555 29,100 -2,220 Descending FlightAware UK
12:10AM 52.6298 -1.9540 131° Southeast 484 557 28,000 -2,100 Descending FlightAware UK
12:10AM 52.5859 -1.8719 131° Southeast 476 548 27,000 -2,040 Descending FlightAware UK
12:11AM 52.5429 -1.7917 131° Southeast 470 541 26,000 -2,100 Descending FlightAware UK
12:11AM 52.5003 -1.7124 131° Southeast 462 532 24,900 -2,100 Descending FlightAware UK
12:12AM 52.4505 -1.6201 132° Southeast 456 525 23,700 -1,920 Descending FlightAware UK
12:12AM 52.4059 -1.5497 136° Southeast 448 516 22,800 -1,920 Descending FlightAware UK
12:13AM 52.3504 -1.4753 141° Southeast 440 506 21,600 -2,400 Descending FlightAware UK
12:13AM 52.3043 -1.4151 141° Southeast 432 497 20,200 -2,520 Descending FlightAware UK
12:14AM 52.2597 -1.3574 142° Southeast 422 486 19,100 -2,340 Descending FlightAware UK
12:14AM 52.2150 -1.2999 142° Southeast 420 483 17,900 -2,640 Descending FlightAware UK
12:15AM 52.1724 -1.2439 141° Southeast 410 472 16,500 -2,940 Descending FlightAware UK
12:15AM 52.1484 -1.1641 116° Southeast 398 458 15,000 -2,760 Descending FlightAware UK
12:16AM 52.1357 -1.0609 101° East 380 437 13,500 -1,620 Descending FlightAware UK
12:17AM 52.1241 -0.9697 102° East 332 382 13,100 -780 Descending FlightAware UK
12:17AM 52.1155 -0.9001 101° East 304 350 12,700 -1,320 Descending FlightAware UK
12:18AM 52.1077 -0.8332 101° East 300 345 11,800 -1,800 Descending FlightAware UK
12:18AM 52.0999 -0.7681 101° East 298 343 10,900 -1,800 Descending FlightAware UK
12:19AM 52.0919 -0.7039 101° East 290 334 10,000 -1,980 Descending FlightAware UK
12:19AM 52.0869 -0.6654 102° East 290 334 9,300 -2,040 Descending FlightAware UK
12:19AM 52.0820 -0.6277 102° East 286 329 8,800 -1,860 Descending FlightAware UK
12:20AM 52.0768 -0.5895 102° East 282 325 8,200 -1,500 Descending FlightAware UK
12:20AM 52.0718 -0.5519 102° East 282 325 7,900 -360 Descending FlightAware UK
12:20AM 52.0667 -0.5139 102° East 282 325 8,000 120 Climbing FlightAware UK
12:21AM 52.0617 -0.4765 102° East 282 325 8,000  Level FlightAware UK
12:21AM 52.0567 -0.4387 102° East 282 325 8,000  Level FlightAware UK
12:21AM 52.0560 -0.3866 91° East 282 325 8,000  Level FlightAware UK
12:21AM 52.0559 -0.3480 90° East 282 325 8,000  Level FlightAware UK
12:22AM 52.0559 -0.3086 90° East 282 325 8,000  Level FlightAware UK
12:22AM 52.0558 -0.2692 90° East 282 325 8,000  Level FlightAware UK
12:22AM 52.0555 -0.2303 91° East 282 325 8,000  Level FlightAware UK
12:23AM 52.0554 -0.1912 90° East 282 325 8,000  Level FlightAware UK
12:23AM 52.0553 -0.1526 90° East 282 325 8,000 -540 Level FlightAware UK
12:23AM 52.0552 -0.1135 90° East 280 322 7,700 -1,500 Descending FlightAware UK
12:24AM 52.0549 -0.0740 91° East 278 320 7,100 -2,040 Descending FlightAware UK
12:24AM 52.0547 -0.0350 90° East 276 318 6,500 -1,200 Descending FlightAware UK
12:24AM 52.0545 0.0035 90° East 260 299 6,400 -360 Descending FlightAware UK
12:25AM 52.0544 0.0378 90° East 244 281 6,300 -360 Descending FlightAware UK
12:25AM 52.0541 0.0708 91° East 228 262 6,200 -540 Descending FlightAware UK
12:25AM 52.0541 0.1020 90° East 222 255 6,000 -540 Descending FlightAware UK
12:25AM 52.0543 0.1336 89° East 218 251 5,900 -180 Descending FlightAware UK
12:26AM 52.0545 0.1648 89° East 220 253 5,900  Level FlightAware UK
12:26AM 52.0547 0.1965 89° East 220 253 5,900  Level FlightAware UK
12:26AM 52.0550 0.2277 89° East 220 253 5,900  Level FlightAware UK
12:27AM 52.0552 0.2585 89° East 220 253 5,900 -360 Level FlightAware UK
12:27AM 52.0554 0.2898 89° East 218 251 5,700 -1,020 Descending FlightAware UK
12:27AM 52.0557 0.3202 89° East 218 251 5,300 -1,380 Descending FlightAware UK
12:28AM 52.0557 0.3502 90° East 216 249 4,900 -1,380 Descending FlightAware UK
12:28AM 52.0555 0.3807 91° East 214 246 4,500 -1,380 Descending FlightAware UK
12:28AM 52.0552 0.4101 91° East 216 249 4,100 -1,200 Descending FlightAware UK
12:28AM 52.0433 0.4311 133° Southeast 210 242 3,800 -1,200 Descending FlightAware UK
12:29AM 52.0279 0.4320 178° South 202 232 3,400 -840 Descending FlightAware UK
12:29AM 52.0140 0.4260 195° South 182 209 3,300 -720 Descending FlightAware UK
12:29AM 52.0009 0.4087 219° Southwest 162 186 2,900 -720 Descending FlightAware UK
12:30AM 51.9918 0.3947 223° Southwest 164 189 2,800 -360 Descending FlightAware UK
12:30AM 51.9821 0.3809 221° Southwest 166 191 2,700 -720 Descending FlightAware UK
12:30AM 51.9724 0.3663 223° Southwest 166 191 2,400 -1,020 Descending FlightAware UK
12:31AM 51.9629 0.3518 223° Southwest 164 189 2,100 -1,020 Descending FlightAware UK